createdAt,value
2022-10-28T00:01:02.617Z,32.1
2022-10-28T00:02:07.376Z,33.6
2022-10-28T00:03:12.229Z,34.1
2022-10-28T00:04:16.423Z,38.4
2022-10-28T00:05:21.269Z,33.9
2022-10-28T00:06:25.774Z,35.8
2022-10-28T00:07:30.222Z,33.2
2022-10-28T00:08:34.707Z,33.7
2022-10-28T00:09:38.894Z,35.6
2022-10-28T00:10:43.961Z,30.9
2022-10-28T00:11:48.940Z,33.8
2022-10-28T00:12:53.133Z,34
2022-10-28T00:13:57.218Z,31.7
2022-10-28T00:15:01.693Z,29.4
2022-10-28T00:16:06.365Z,34.4
2022-10-28T00:17:11.078Z,31.8
2022-10-28T00:18:15.806Z,30.5
2022-10-28T00:19:20.332Z,33.2
2022-10-28T00:20:24.725Z,35.6
2022-10-28T00:21:28.994Z,32.6
2022-10-28T00:22:33.810Z,30.6
2022-10-28T00:23:38.365Z,34.5
2022-10-28T00:24:43.022Z,31.6
2022-10-28T00:25:47.293Z,32.8
2022-10-28T00:26:52.385Z,34.3
2022-10-28T00:27:56.609Z,31
2022-10-28T00:29:01.233Z,30.5
2022-10-28T00:30:08.693Z,30.8
2022-10-28T00:31:13.281Z,32
2022-10-28T00:32:17.448Z,30.1
2022-10-28T00:33:22.270Z,28.6
2022-10-28T00:34:26.822Z,30.7
2022-10-28T00:35:31.737Z,30
2022-10-28T00:36:36.371Z,30.6
2022-10-28T00:37:40.594Z,29.8
2022-10-28T00:38:45.593Z,30.1
2022-10-28T00:39:50.305Z,28.1
2022-10-28T00:40:55.281Z,33.3
2022-10-28T00:41:59.961Z,30.7
2022-10-28T00:43:04.540Z,33.9
2022-10-28T00:44:09.270Z,31.1
2022-10-28T00:45:24.238Z,31
2022-10-28T00:46:28.525Z,29.6
2022-10-28T00:47:38.641Z,31.4
2022-10-28T00:48:45.901Z,29.3
2022-10-28T00:49:50.529Z,37.3
2022-10-28T00:50:55.029Z,29.8
2022-10-28T00:52:00.106Z,32.9
2022-10-28T00:53:04.804Z,32.5
2022-10-28T00:54:14.770Z,33.2
2022-10-28T00:55:19.020Z,34.2
2022-10-28T00:56:23.626Z,34
2022-10-28T00:57:28.513Z,33.7
2022-10-28T00:58:32.911Z,30.5
2022-10-28T00:59:37.493Z,33.1
2022-10-28T01:00:42.161Z,33.3
2022-10-28T01:01:46.947Z,30.8
2022-10-28T01:02:51.245Z,27.6
2022-10-28T01:03:55.731Z,29.5
2022-10-28T01:05:00.299Z,30.9
2022-10-28T01:06:05.149Z,29.6
2022-10-28T01:07:10.254Z,27.7
2022-10-28T01:08:14.812Z,29.4
2022-10-28T01:09:19.310Z,30.5
2022-10-28T01:10:23.510Z,25.2
2022-10-28T01:11:36.057Z,32.1
2022-10-28T01:12:48.663Z,28.9
2022-10-28T01:13:58.169Z,27.2
2022-10-28T01:15:12.826Z,28.1
2022-10-28T01:16:22.741Z,26.7
2022-10-28T01:17:37.281Z,26.8
2022-10-28T01:18:52.601Z,29.4
2022-10-28T01:20:02.220Z,27.7
2022-10-28T01:21:17.054Z,30.1
2022-10-28T01:23:41.507Z,28.6
2022-10-28T01:24:54.333Z,26.9
2022-10-28T01:26:08.853Z,25.6
2022-10-28T01:27:16.105Z,28.6
2022-10-28T01:28:31.041Z,25.3
2022-10-28T01:29:35.668Z,26.9
2022-10-28T01:30:50.405Z,26.7
2022-10-28T01:32:05.147Z,26.5
2022-10-28T01:33:15.097Z,28.4
2022-10-28T01:34:19.286Z,28.7
2022-10-28T01:35:32.209Z,31.7
2022-10-28T01:36:45.045Z,30.3
2022-10-28T01:37:49.304Z,29.8
2022-10-28T01:38:56.568Z,28.6
2022-10-28T01:40:11.427Z,28.5
2022-10-28T01:41:21.427Z,28.8
2022-10-28T01:42:30.852Z,30.6
2022-10-28T01:43:35.305Z,27.9
2022-10-28T01:44:42.455Z,29.5
2022-10-28T01:45:52.833Z,25.9
2022-10-28T01:47:07.476Z,34.2
2022-10-28T01:48:17.250Z,29.1
2022-10-28T01:49:21.809Z,27.6
2022-10-28T01:50:26.624Z,28.1
2022-10-28T01:51:41.536Z,29.2
2022-10-28T01:52:46.200Z,30.2
2022-10-28T01:53:50.668Z,25.7
2022-10-28T01:54:55.396Z,27.7
2022-10-28T01:56:02.524Z,28.6
2022-10-28T01:57:07.100Z,28.3
2022-10-28T01:58:11.811Z,34.7
2022-10-28T01:59:16.573Z,26.3
2022-10-28T02:00:20.824Z,25.8
2022-10-28T02:01:25.314Z,26.1
2022-10-28T02:02:29.616Z,27.8
2022-10-28T02:03:34.112Z,26.7
2022-10-28T02:04:38.875Z,24
2022-10-28T02:05:43.209Z,23.7
2022-10-28T02:06:47.344Z,24.9
2022-10-28T02:07:52.091Z,23.5
2022-10-28T02:08:56.870Z,21.2
2022-10-28T02:10:04.738Z,22
2022-10-28T02:11:12.152Z,24.5
2022-10-28T02:12:21.361Z,25.1
2022-10-28T02:13:30.649Z,20.7
2022-10-28T02:14:35.201Z,23
2022-10-28T02:15:40.352Z,22.4
2022-10-28T02:16:47.709Z,23.4
2022-10-28T02:17:52.310Z,21.6
2022-10-28T02:19:01.691Z,21.3
2022-10-28T02:20:11.356Z,19.8
2022-10-28T02:21:26.292Z,22.2
2022-10-28T02:22:36.002Z,21.3
2022-10-28T02:23:45.487Z,21
2022-10-28T02:24:55.752Z,20.6
2022-10-28T02:26:06.539Z,17.7
2022-10-28T02:27:18.844Z,19.5
2022-10-28T02:28:33.575Z,20
2022-10-28T02:29:43.260Z,19.5
2022-10-28T02:30:47.788Z,19.2
2022-10-28T02:31:52.268Z,22.3
2022-10-28T02:32:57.280Z,21.4
2022-10-28T02:34:01.871Z,24.1
2022-10-28T02:35:06.216Z,19.7
2022-10-28T02:36:15.768Z,21
2022-10-28T02:37:20.416Z,19.6
2022-10-28T02:38:25.107Z,22
2022-10-28T02:39:32.328Z,21.6
2022-10-28T02:40:36.960Z,20.9
2022-10-28T02:41:41.582Z,19.9
2022-10-28T02:42:53.771Z,17.8
2022-10-28T02:43:58.056Z,17.3
2022-10-28T02:45:03.180Z,18
2022-10-28T02:46:12.788Z,19.8
2022-10-28T02:47:16.987Z,20.1
2022-10-28T02:48:21.636Z,18.7
2022-10-28T02:49:26.485Z,17.9
2022-10-28T02:50:31.432Z,18.9
2022-10-28T02:51:35.912Z,20.2
2022-10-28T02:52:45.857Z,19.7
2022-10-28T02:53:50.336Z,21.9
2022-10-28T02:55:00.039Z,19.2
2022-10-28T02:56:04.487Z,18.5
2022-10-28T02:57:09.085Z,18.7
2022-10-28T02:58:16.934Z,18.4
2022-10-28T02:59:21.412Z,19.8
2022-10-28T03:00:26.061Z,18.3
2022-10-28T03:01:30.545Z,17.3
2022-10-28T03:02:35.163Z,18.2
2022-10-28T03:03:39.671Z,18.2
2022-10-28T03:04:44.427Z,18.1
2022-10-28T03:05:48.967Z,18.7
2022-10-28T03:06:53.512Z,16
2022-10-28T03:07:57.927Z,16.4
2022-10-28T03:09:02.303Z,16.6
2022-10-28T03:10:06.915Z,16.3
2022-10-28T03:11:11.416Z,15.6
2022-10-28T03:12:16.339Z,17.8
2022-10-28T03:13:20.587Z,21.2
2022-10-28T03:14:25.176Z,18.6
2022-10-28T03:15:30.196Z,21.6
2022-10-28T03:16:34.888Z,22
2022-10-28T03:17:39.544Z,24.9
2022-10-28T03:18:44.038Z,20.6
2022-10-28T03:19:48.727Z,22.3
2022-10-28T03:20:55.305Z,24.2
2022-10-28T03:21:57.891Z,23.2
2022-10-28T03:23:02.296Z,23.2
2022-10-28T03:24:07.056Z,24.5
2022-10-28T03:25:11.444Z,22.3
2022-10-28T03:26:15.736Z,25.8
2022-10-28T03:27:20.374Z,22.6
2022-10-28T03:28:25.165Z,20.5
2022-10-28T03:29:29.519Z,23.7
2022-10-28T03:30:34.051Z,23.8
2022-10-28T03:31:38.603Z,21.2
2022-10-28T03:32:43.827Z,22.8
2022-10-28T03:33:48.299Z,22
2022-10-28T03:34:52.875Z,17.1
2022-10-28T03:35:57.452Z,19.8
2022-10-28T03:37:02.141Z,16.6
2022-10-28T03:38:06.935Z,16.5
2022-10-28T03:39:11.484Z,16.7
2022-10-28T03:40:16.055Z,17.7
2022-10-28T03:41:20.752Z,17.4
2022-10-28T03:42:24.972Z,18.1
2022-10-28T03:43:29.801Z,19
2022-10-28T03:44:34.399Z,17.4
2022-10-28T03:45:38.709Z,19.4
2022-10-28T03:46:43.320Z,19.3
2022-10-28T03:47:48.583Z,21.4
2022-10-28T03:48:53.079Z,19
2022-10-28T03:49:57.644Z,19.3
2022-10-28T03:51:02.114Z,19.4
2022-10-28T03:52:06.716Z,18.9
2022-10-28T03:53:11.309Z,20.3
2022-10-28T03:54:16.604Z,18.6
2022-10-28T03:55:21.020Z,20.6
2022-10-28T03:56:25.456Z,18.2
2022-10-28T03:57:29.671Z,22.3
2022-10-28T03:58:36.197Z,20.3
2022-10-28T03:59:38.404Z,22.8
2022-10-28T04:00:42.969Z,17.6
2022-10-28T04:01:50.055Z,20
2022-10-28T04:02:54.556Z,23.6
2022-10-28T04:03:58.995Z,19
2022-10-28T04:05:03.702Z,18.5
2022-10-28T04:06:08.768Z,18.1
2022-10-28T04:07:13.100Z,17.6
2022-10-28T04:08:17.635Z,18.4
2022-10-28T04:09:22.249Z,18.7
2022-10-28T04:10:26.761Z,19.4
2022-10-28T04:11:31.435Z,17.8
2022-10-28T04:12:36.497Z,18.4
2022-10-28T04:13:41.360Z,19.9
2022-10-28T04:14:46.209Z,19.3
2022-10-28T04:15:51.064Z,18.9
2022-10-28T04:16:55.725Z,18.1
2022-10-28T04:18:00.224Z,21.9
2022-10-28T04:19:04.675Z,17.6
2022-10-28T04:20:09.199Z,18.6
2022-10-28T04:21:14.087Z,19.6
2022-10-28T04:22:19.044Z,18
2022-10-28T04:23:23.567Z,18.6
2022-10-28T04:24:28.347Z,18.6
2022-10-28T04:25:33.184Z,17.5
2022-10-28T04:26:38.243Z,18.7
2022-10-28T04:27:43.056Z,19.6
2022-10-28T04:28:47.643Z,17.4
2022-10-28T04:29:52.495Z,17.5
2022-10-28T04:30:56.880Z,18.5
2022-10-28T04:32:01.908Z,18.5
2022-10-28T04:33:06.567Z,20.5
2022-10-28T04:34:11.123Z,29.6
2022-10-28T04:35:15.623Z,26.7
2022-10-28T04:36:20.299Z,22.5
2022-10-28T04:37:24.963Z,17.2
2022-10-28T04:38:29.821Z,19
2022-10-28T04:39:34.376Z,20.2
2022-10-28T04:40:38.523Z,17.6
2022-10-28T04:41:42.940Z,17.3
2022-10-28T04:42:47.322Z,17.3
2022-10-28T04:43:52.019Z,15
2022-10-28T04:44:56.645Z,17.2
2022-10-28T04:46:01.303Z,16.2
2022-10-28T04:47:05.815Z,14.6
2022-10-28T04:48:10.411Z,16.3
2022-10-28T04:49:14.823Z,15.5
2022-10-28T04:50:19.448Z,19.6
2022-10-28T04:51:25.052Z,18
2022-10-28T04:52:30.588Z,14.3
2022-10-28T04:53:35.266Z,16.3
2022-10-28T04:54:39.943Z,16
2022-10-28T04:55:44.648Z,15
2022-10-28T04:56:49.048Z,15.3
2022-10-28T04:57:53.679Z,13.3
2022-10-28T04:58:58.255Z,13.7
2022-10-28T05:00:02.996Z,14.9
2022-10-28T05:01:07.681Z,14.3
2022-10-28T05:02:12.198Z,13.9
2022-10-28T05:03:16.571Z,16.8
2022-10-28T05:04:20.783Z,12.7
2022-10-28T05:05:25.545Z,12.2
2022-10-28T05:06:29.879Z,14.4
2022-10-28T05:07:34.104Z,16.7
2022-10-28T05:08:38.516Z,15.5
2022-10-28T05:09:42.751Z,16.7
2022-10-28T05:10:47.390Z,16.1
2022-10-28T05:11:51.871Z,15.4
2022-10-28T05:12:56.656Z,14.5
2022-10-28T05:14:01.195Z,14.2
2022-10-28T05:15:05.776Z,14.6
2022-10-28T05:16:10.464Z,14.1
2022-10-28T05:17:15.117Z,14.1
2022-10-28T05:18:19.751Z,16.7
2022-10-28T05:19:24.036Z,14.7
2022-10-28T05:20:28.556Z,14.9
2022-10-28T05:21:32.803Z,13.9
2022-10-28T05:22:37.524Z,13.6
2022-10-28T05:23:49.575Z,14.4
2022-10-28T05:24:54.092Z,13.4
2022-10-28T05:25:58.443Z,12.4
2022-10-28T05:27:02.923Z,15.2
2022-10-28T05:28:07.610Z,15.5
2022-10-28T05:29:12.187Z,15.1
2022-10-28T05:30:16.759Z,15.6
2022-10-28T05:31:21.295Z,15.1
2022-10-28T05:32:26.316Z,14.4
2022-10-28T05:33:30.594Z,13.4
2022-10-28T05:34:35.163Z,16
2022-10-28T05:35:39.627Z,17.1
2022-10-28T05:36:43.895Z,13.9
2022-10-28T05:37:48.523Z,15.5
2022-10-28T05:38:53.024Z,15.6
2022-10-28T05:39:57.711Z,15.9
2022-10-28T05:41:02.245Z,14.9
2022-10-28T05:42:06.688Z,14.5
2022-10-28T05:43:10.977Z,15.1
2022-10-28T05:44:15.403Z,12.3
2022-10-28T05:45:19.756Z,13.7
2022-10-28T05:46:24.083Z,13.3
2022-10-28T05:47:28.231Z,14.2
2022-10-28T05:48:33.405Z,13
2022-10-28T05:49:38.059Z,14.7
2022-10-28T05:50:42.675Z,13.3
2022-10-28T05:51:47.204Z,13.9
2022-10-28T05:52:51.687Z,13.6
2022-10-28T05:53:55.844Z,12.9
2022-10-28T05:55:00.928Z,13
2022-10-28T05:56:05.583Z,15.3
2022-10-28T05:57:10.263Z,13.5
2022-10-28T05:58:14.766Z,12.9
2022-10-28T05:59:19.416Z,14.4
2022-10-28T06:00:23.977Z,16.1
2022-10-28T06:01:28.707Z,13
2022-10-28T06:02:33.370Z,12.5
2022-10-28T06:03:38.112Z,13.5
2022-10-28T06:04:42.495Z,14
2022-10-28T06:05:47.267Z,11.6
2022-10-28T06:06:51.680Z,12.9
2022-10-28T06:07:56.203Z,13.4
2022-10-28T06:09:01.055Z,13.9
2022-10-28T06:10:05.465Z,14.8
2022-10-28T06:11:08.755Z,14
2022-10-28T06:12:13.192Z,12.1
2022-10-28T06:13:17.713Z,17
2022-10-28T06:14:22.181Z,13.4
2022-10-28T06:15:27.162Z,14.1
2022-10-28T06:16:31.884Z,13
2022-10-28T06:17:36.296Z,10.9
2022-10-28T06:18:40.957Z,13.4
2022-10-28T06:19:45.502Z,14.2
2022-10-28T06:20:49.954Z,13
2022-10-28T06:21:58.326Z,12.6
2022-10-28T06:23:02.671Z,12.4
2022-10-28T06:24:11.262Z,16.2
2022-10-28T06:25:12.109Z,13.1
2022-10-28T06:26:17.030Z,14
2022-10-28T06:27:22.315Z,15.1
2022-10-28T06:28:26.884Z,14
2022-10-28T06:29:31.420Z,12.3
2022-10-28T06:30:36.026Z,13.1
2022-10-28T06:31:40.589Z,13.2
2022-10-28T06:32:45.412Z,11.3
2022-10-28T06:33:49.977Z,13.2
2022-10-28T06:34:54.497Z,13.6
2022-10-28T06:35:59.147Z,12.7
2022-10-28T06:37:03.580Z,12.9
2022-10-28T06:38:09.502Z,17
2022-10-28T06:39:13.368Z,14.5
2022-10-28T06:40:18.108Z,13.7
2022-10-28T06:41:25.767Z,13.6
2022-10-28T06:42:30.116Z,12.2
2022-10-28T06:43:34.882Z,16.2
2022-10-28T06:44:39.769Z,12.5
2022-10-28T06:45:44.055Z,13
2022-10-28T06:46:50.178Z,17.1
2022-10-28T06:47:54.819Z,14.1
2022-10-28T06:48:59.753Z,11.4
2022-10-28T06:50:04.052Z,13.5
2022-10-28T06:51:08.406Z,15.2
2022-10-28T06:52:12.607Z,13
2022-10-28T06:53:17.252Z,13.4
2022-10-28T06:54:21.733Z,13.9
2022-10-28T06:55:26.029Z,12.8
2022-10-28T06:56:30.509Z,13.4
2022-10-28T06:57:34.996Z,12.1
2022-10-28T06:58:39.235Z,14.7
2022-10-28T06:59:43.923Z,14.3
2022-10-28T07:00:48.298Z,11.6
2022-10-28T07:01:52.846Z,13.2
2022-10-28T07:02:57.338Z,13.7
2022-10-28T07:04:01.729Z,15.6
2022-10-28T07:05:06.394Z,12.3
2022-10-28T07:06:10.988Z,15.5
2022-10-28T07:07:16.031Z,13.5
2022-10-28T07:08:20.612Z,14.3
2022-10-28T07:09:25.166Z,12.7
2022-10-28T07:10:29.935Z,13.3
2022-10-28T07:11:34.502Z,14.2
2022-10-28T07:12:39.025Z,13.1
2022-10-28T07:13:44.355Z,13.5
2022-10-28T07:14:48.153Z,15.2
2022-10-28T07:15:52.707Z,13.6
2022-10-28T07:16:56.956Z,13.5
2022-10-28T07:18:01.524Z,13.3
2022-10-28T07:19:06.533Z,12.8
2022-10-28T07:20:10.798Z,14.4
2022-10-28T07:21:15.647Z,12.9
2022-10-28T07:22:23.508Z,13.4
2022-10-28T07:23:25.058Z,14.1
2022-10-28T07:24:29.609Z,15.5
2022-10-28T07:25:34.394Z,13.3
2022-10-28T07:26:38.858Z,13
2022-10-28T07:27:43.576Z,12
2022-10-28T07:28:48.123Z,13
2022-10-28T07:29:52.823Z,12.2
2022-10-28T07:30:57.257Z,13.9
2022-10-28T07:32:01.817Z,12.3
2022-10-28T07:33:06.717Z,12.4
2022-10-28T07:34:11.307Z,12.3
2022-10-28T07:35:15.762Z,12.9
2022-10-28T07:36:21.935Z,12.9
2022-10-28T07:37:26.839Z,12.6
2022-10-28T07:38:31.144Z,13
2022-10-28T07:40:40.116Z,14
2022-10-28T07:41:44.856Z,11.4
2022-10-28T07:42:49.760Z,12.6
2022-10-28T07:43:54.224Z,11.3
2022-10-28T07:44:58.796Z,14.5
2022-10-28T07:46:03.585Z,12.1
2022-10-28T07:47:07.971Z,13.7
2022-10-28T07:48:12.408Z,10.3
2022-10-28T07:49:17.123Z,12
2022-10-28T07:50:21.887Z,11.1
2022-10-28T07:51:26.294Z,11.4
2022-10-28T07:52:30.920Z,12.9
2022-10-28T07:53:35.711Z,13.6
2022-10-28T07:54:40.076Z,12.9
2022-10-28T07:55:44.542Z,12.2
2022-10-28T07:56:56.664Z,13.1
2022-10-28T07:58:01.079Z,12.1
2022-10-28T07:59:05.527Z,11.5
2022-10-28T08:00:10.115Z,12.4
2022-10-28T08:01:15.034Z,15.5
2022-10-28T08:02:19.303Z,13.4
2022-10-28T08:03:31.070Z,12.9
2022-10-28T08:04:28.647Z,12.9
2022-10-28T08:05:33.118Z,12.6
2022-10-28T08:06:37.803Z,13.9
2022-10-28T08:07:42.304Z,14.3
2022-10-28T08:08:46.892Z,11.8
2022-10-28T08:09:51.654Z,15.1
2022-10-28T08:10:56.316Z,15.9
2022-10-28T08:12:00.825Z,16.6
2022-10-28T08:13:05.328Z,14.2
2022-10-28T08:14:10.229Z,17.1
2022-10-28T08:15:14.952Z,13.2
2022-10-28T08:16:19.130Z,14.2
2022-10-28T08:17:23.881Z,12.7
2022-10-28T08:18:28.364Z,13.6
2022-10-28T08:19:32.963Z,11.9
2022-10-28T08:20:37.498Z,12.8
2022-10-28T08:21:42.151Z,12.4
2022-10-28T08:22:46.661Z,13.6
2022-10-28T08:23:51.338Z,12.1
2022-10-28T08:24:55.953Z,13.9
2022-10-28T08:26:00.533Z,15.5
2022-10-28T08:27:05.289Z,14.6
2022-10-28T08:28:10.076Z,12.5
2022-10-28T08:29:15.245Z,14.9
2022-10-28T08:30:19.471Z,12.6
2022-10-28T08:31:24.303Z,11.8
2022-10-28T08:32:28.501Z,13.5
2022-10-28T08:33:32.750Z,11.4
2022-10-28T08:34:39.221Z,13.9
2022-10-28T08:35:41.958Z,12
2022-10-28T08:36:51.581Z,11.9
2022-10-28T08:37:56.708Z,11.6
2022-10-28T08:39:00.642Z,15.5
2022-10-28T08:40:05.245Z,12.8
2022-10-28T08:41:09.874Z,12.2
2022-10-28T08:42:22.738Z,13.3
2022-10-28T08:43:40.178Z,12.9
2022-10-28T08:44:41.915Z,11.9
2022-10-28T08:45:51.525Z,12.5
2022-10-28T08:47:03.985Z,11.1
2022-10-28T08:48:13.746Z,13.5
2022-10-28T08:49:25.906Z,12.5
2022-10-28T08:50:30.347Z,10.8
2022-10-28T08:51:34.574Z,11.7
2022-10-28T08:52:39.269Z,11.1
2022-10-28T08:53:51.958Z,13.4
2022-10-28T08:54:59.117Z,11.7
2022-10-28T08:56:06.765Z,9.8
2022-10-28T08:57:17.823Z,12.4
2022-10-28T08:58:22.031Z,10.6
2022-10-28T08:59:26.514Z,10.6
2022-10-28T09:00:36.355Z,8.8
2022-10-28T09:01:41.192Z,10.4
2022-10-28T09:02:48.818Z,9.3
2022-10-28T09:03:58.139Z,11.3
2022-10-28T09:05:02.780Z,8.4
2022-10-28T09:06:15.512Z,11.6
2022-10-28T09:07:20.010Z,9.8
2022-10-28T09:08:24.632Z,9.2
2022-10-28T09:09:29.021Z,9.7
2022-10-28T09:10:33.528Z,10.2
2022-10-28T09:11:42.976Z,11.3
2022-10-28T09:12:47.445Z,8.9
2022-10-28T09:13:59.737Z,8.4
2022-10-28T09:15:09.873Z,11.4
2022-10-28T09:16:15.946Z,10
2022-10-28T09:17:23.853Z,8.4
2022-10-28T09:18:28.437Z,8
2022-10-28T09:19:40.874Z,15.1
2022-10-28T09:20:50.989Z,8.7
2022-10-28T09:21:55.793Z,8.3
2022-10-28T09:23:05.434Z,9.8
2022-10-28T09:24:09.534Z,10.8
2022-10-28T09:25:18.858Z,9.3
2022-10-28T09:26:26.449Z,9.7
2022-10-28T09:27:33.572Z,8.8
2022-10-28T09:28:41.284Z,9.5
2022-10-28T09:29:53.976Z,11
2022-10-28T09:31:06.222Z,9
2022-10-28T09:32:21.111Z,8.9
2022-10-28T09:40:37.137Z,7.8
2022-10-28T09:41:48.124Z,8.2
2022-10-28T09:43:04.193Z,9.9
2022-10-28T09:45:08.197Z,9.9
2022-10-28T09:49:03.653Z,9
2022-10-28T09:50:11.677Z,9
2022-10-28T09:54:41.117Z,7.7
2022-10-28T09:56:55.693Z,7.7
2022-10-28T09:58:22.425Z,6.9
2022-10-28T09:59:38.179Z,8.3
2022-10-28T10:00:51.020Z,7.5
2022-10-28T10:02:02.301Z,7.4
2022-10-28T10:03:17.420Z,7.9
2022-10-28T10:04:35.071Z,9.6
2022-10-28T10:05:54.624Z,7.2
2022-10-28T10:07:13.120Z,7
2022-10-28T10:08:28.604Z,7.9
2022-10-28T10:09:46.467Z,8.3
2022-10-28T10:11:00.355Z,6.8
2022-10-28T10:12:17.235Z,8.1
2022-10-28T10:13:44.519Z,8.5
2022-10-28T10:14:56.602Z,7.6
2022-10-28T10:16:13.070Z,7
2022-10-28T10:17:47.503Z,6.8
2022-10-28T10:18:56.426Z,7.2
2022-10-28T10:20:00.858Z,9.7
2022-10-28T10:21:13.076Z,7
2022-10-28T10:22:17.771Z,6.5
2022-10-28T10:23:30.403Z,6.9
2022-10-28T10:24:34.482Z,7.1
2022-10-28T10:25:38.575Z,7.9
2022-10-28T10:26:43.223Z,6.9
2022-10-28T10:27:47.771Z,8.9
2022-10-28T10:28:57.500Z,7.3
2022-10-28T10:30:02.229Z,7.7
2022-10-28T10:31:06.587Z,8.8
2022-10-28T10:32:11.183Z,7.5
2022-10-28T10:33:18.200Z,8.5
2022-10-28T10:34:22.349Z,7.3
2022-10-28T10:35:26.444Z,7
2022-10-28T10:36:30.743Z,8.4
2022-10-28T10:37:35.792Z,11.9
2022-10-28T10:38:42.824Z,9.3
2022-10-28T10:39:52.491Z,7.6
2022-10-28T10:40:59.733Z,7.4
2022-10-28T10:42:04.355Z,7.3
2022-10-28T10:43:16.511Z,7.9
2022-10-28T10:44:21.107Z,7.4
2022-10-28T10:45:25.577Z,8.1
2022-10-28T10:46:30.153Z,7.8
2022-10-28T10:47:34.847Z,9.6
2022-10-28T10:48:38.972Z,8.8
2022-10-28T10:49:43.532Z,9.4
2022-10-28T10:50:48.059Z,8.1
2022-10-28T10:51:52.147Z,15.6
2022-10-28T10:52:59.271Z,9.3
2022-10-28T10:54:03.423Z,8.8
2022-10-28T10:55:07.978Z,8.3
2022-10-28T10:56:12.784Z,9.4
2022-10-28T10:57:17.111Z,8.6
2022-10-28T10:58:21.772Z,9.8
2022-10-28T10:59:26.356Z,8.9
2022-10-28T11:00:31.032Z,9.4
2022-10-28T11:01:38.694Z,8.9
2022-10-28T11:02:43.331Z,8
2022-10-28T11:03:47.866Z,8.4
2022-10-28T11:04:54.907Z,10.5
2022-10-28T11:06:18.727Z,8.7
2022-10-28T11:07:04.072Z,9.6
2022-10-28T11:08:08.672Z,9.4
2022-10-28T11:10:17.899Z,8
2022-10-28T11:11:27.636Z,10.5
2022-10-28T11:12:37.717Z,6.8
2022-10-28T11:13:45.105Z,7.8
2022-10-28T11:14:46.996Z,8.8
2022-10-28T11:15:56.673Z,9.7
2022-10-28T11:17:01.181Z,8
2022-10-28T11:18:05.732Z,8.9
2022-10-28T11:19:18.488Z,8.4
2022-10-28T11:20:28.188Z,10.6
2022-10-28T11:21:37.898Z,7.4
2022-10-28T11:22:47.468Z,7.9
2022-10-28T11:23:54.644Z,9
2022-10-28T11:25:09.470Z,9.9
2022-10-28T11:26:24.312Z,10.1
2022-10-28T11:27:28.868Z,9.9
2022-10-28T11:28:33.352Z,8.7
2022-10-28T11:29:48.264Z,9.3
2022-10-28T11:30:52.862Z,9.1
2022-10-28T11:31:57.288Z,8.5
2022-10-28T11:33:24.638Z,11.3
2022-10-28T11:34:14.445Z,9.6
2022-10-28T11:35:29.481Z,9
2022-10-28T11:36:39.230Z,9.1
2022-10-28T11:37:51.965Z,9.2
2022-10-28T11:39:06.631Z,8.4
2022-10-28T11:40:16.306Z,7.6
2022-10-28T11:41:29.216Z,8.4
2022-10-28T11:42:38.791Z,7.8
2022-10-28T11:43:47.716Z,9.3
2022-10-28T11:44:51.046Z,9.5
2022-10-28T11:46:01.199Z,8
2022-10-28T11:47:15.819Z,7.3
2022-10-28T11:48:25.503Z,7.4
2022-10-28T11:49:35.171Z,10.3
2022-10-28T11:50:49.977Z,9.2
2022-10-28T11:51:59.705Z,9.3
2022-10-28T11:53:07.294Z,7
2022-10-28T11:54:21.874Z,7.3
2022-10-28T11:55:36.906Z,8.2
2022-10-28T11:56:51.583Z,11.3
2022-10-28T11:58:01.769Z,8.9
2022-10-28T11:59:16.535Z,10.7
2022-10-28T12:00:26.678Z,9.9
2022-10-28T12:01:41.702Z,9.5
2022-10-28T12:02:56.728Z,10.8
2022-10-28T12:04:00.773Z,8.3
2022-10-28T12:05:13.505Z,9.7
2022-10-28T12:06:18.186Z,6.4
2022-10-28T12:07:30.359Z,6.4
2022-10-28T12:08:43.109Z,7.9
2022-10-28T12:09:57.822Z,8.6
2022-10-28T12:11:12.500Z,9.3
2022-10-28T12:12:22.185Z,8.8
2022-10-28T12:13:33.998Z,7.9
2022-10-28T12:14:48.661Z,9
2022-10-28T12:15:58.287Z,8.4
2022-10-28T12:17:05.502Z,7.8
2022-10-28T12:18:20.329Z,11.3
2022-10-28T12:19:35.124Z,9.5
2022-10-28T12:20:39.844Z,8.7
2022-10-28T12:21:49.390Z,8.1
2022-10-28T12:23:01.665Z,9.3
2022-10-28T12:24:06.202Z,8
2022-10-28T12:25:16.429Z,7.8
2022-10-28T12:26:23.502Z,9
2022-10-28T12:27:30.464Z,7.4
2022-10-28T12:28:34.756Z,9.2
2022-10-28T12:29:44.592Z,10
2022-10-28T12:30:49.009Z,9.7
2022-10-28T12:31:53.856Z,8.2
2022-10-28T12:33:03.215Z,8
2022-10-28T12:34:07.324Z,8.4
2022-10-28T12:35:14.470Z,11.4
2022-10-28T12:36:22.286Z,11.2
2022-10-28T12:37:31.776Z,8.5
2022-10-28T12:38:38.952Z,9.4
2022-10-28T12:39:43.540Z,10.6
2022-10-28T12:40:48.100Z,9.5
2022-10-28T12:42:00.836Z,10.2
2022-10-28T12:43:05.264Z,11.1
2022-10-28T12:44:14.553Z,9.1
2022-10-28T12:45:21.660Z,8.4
2022-10-28T12:46:25.840Z,12.7
2022-10-28T12:59:19.610Z,8.2
2022-10-28T13:00:36.794Z,8.4
2022-10-28T13:01:55.834Z,7.6
2022-10-28T13:03:03.578Z,9.7
2022-10-28T13:06:22.597Z,7.4
2022-10-28T13:07:45.126Z,9.2
2022-10-28T13:09:02.269Z,8.2
2022-10-28T13:10:14.640Z,9
2022-10-28T13:12:35.022Z,9.2
2022-10-28T13:13:39.690Z,9.2
2022-10-28T13:14:54.394Z,9.8
2022-10-28T13:16:01.772Z,10.8
2022-10-28T13:17:11.299Z,10.1
2022-10-28T13:18:23.477Z,8.1
2022-10-28T13:19:33.318Z,8.5
2022-10-28T13:20:42.757Z,9.5
2022-10-28T13:21:52.454Z,8.3
2022-10-28T13:23:07.161Z,9.6
2022-10-28T13:24:17.057Z,8.1
2022-10-28T13:25:29.709Z,8
2022-10-28T13:26:42.553Z,9.2
2022-10-28T13:27:47.025Z,10.9
2022-10-28T13:28:56.816Z,9.7
2022-10-28T13:30:01.474Z,6.8
2022-10-28T13:31:06.569Z,10.2
2022-10-28T13:32:11.665Z,7.6
2022-10-28T13:33:26.302Z,9.2
2022-10-28T13:34:30.392Z,8.1
2022-10-28T13:35:35.527Z,9.2
2022-10-28T13:36:40.179Z,8.5
2022-10-28T13:37:44.777Z,9.7
2022-10-28T13:38:49.434Z,7.8
2022-10-28T13:39:56.590Z,9.5
2022-10-28T13:41:01.193Z,8.3
2022-10-28T13:42:05.808Z,8.9
2022-10-28T13:43:12.921Z,10.2
2022-10-28T13:44:19.916Z,8.9
2022-10-28T13:45:24.103Z,10.7
2022-10-28T13:46:38.780Z,8.6
2022-10-28T13:47:53.688Z,13
2022-10-28T13:49:03.258Z,15.2
2022-10-28T13:50:18.041Z,14.5
2022-10-28T13:51:22.138Z,10.2
2022-10-28T13:52:26.280Z,11.5
2022-10-28T13:53:30.533Z,12.7
2022-10-28T13:54:43.031Z,14.7
2022-10-28T13:55:47.103Z,12.5
2022-10-28T13:56:51.310Z,11.6
2022-10-28T13:57:56.184Z,15.1
2022-10-28T13:59:00.524Z,11.9
2022-10-28T14:00:13.014Z,14
2022-10-28T14:01:17.541Z,10.9
2022-10-28T14:02:35.451Z,12.8
2022-10-28T14:03:39.263Z,20.8
2022-10-28T14:04:43.770Z,16.4
2022-10-28T14:05:56.196Z,17.4
2022-10-28T14:07:00.610Z,17.2
2022-10-28T14:08:12.804Z,12
2022-10-28T14:09:25.097Z,12.8
2022-10-28T14:10:29.728Z,12.9
2022-10-28T14:11:34.239Z,12.2
2022-10-28T14:12:38.778Z,11.3
2022-10-28T14:13:43.491Z,10.5
2022-10-28T14:14:48.088Z,11
2022-10-28T14:15:57.922Z,10.1
2022-10-28T14:17:12.576Z,10.8
2022-10-28T14:18:42.014Z,12.5
2022-10-28T14:19:27.335Z,10.2
2022-10-28T14:20:31.683Z,9.3
2022-10-28T14:21:36.401Z,10.1
2022-10-28T14:22:43.551Z,10.5
2022-10-28T14:23:48.074Z,10.1
2022-10-28T14:25:02.867Z,9.7
2022-10-28T14:26:07.378Z,17.1
2022-10-28T14:27:11.666Z,9.2
2022-10-28T14:28:16.564Z,11.3
2022-10-28T14:29:28.888Z,9.8
2022-10-28T14:30:44.320Z,10.7
2022-10-28T14:31:58.377Z,13.2
2022-10-28T14:33:02.612Z,11
2022-10-28T14:34:12.176Z,12.4
2022-10-28T14:35:16.254Z,10.7
2022-10-28T14:36:20.981Z,11.1
2022-10-28T14:37:30.714Z,9.9
2022-10-28T14:38:41.254Z,12.7
2022-10-28T14:39:54.018Z,13.9
2022-10-28T14:41:03.650Z,13.6
2022-10-28T14:42:18.465Z,15.3
2022-10-28T14:43:31.125Z,12.8
2022-10-28T14:44:43.866Z,12.4
2022-10-28T14:45:58.665Z,12.7
2022-10-28T14:47:08.401Z,12.6
2022-10-28T14:48:18.216Z,12.3
2022-10-28T14:49:22.585Z,11.2
2022-10-28T14:50:32.292Z,10.9
2022-10-28T14:51:39.441Z,11.8
2022-10-28T14:52:44.111Z,12.8
2022-10-28T14:53:48.717Z,10.4
2022-10-28T14:54:55.820Z,10.8
2022-10-28T14:56:00.322Z,10.9
2022-10-28T14:57:04.993Z,11.6
2022-10-28T14:58:09.538Z,10
2022-10-28T14:59:22.300Z,11.2
2022-10-28T15:00:26.413Z,12.7
2022-10-28T15:01:31.008Z,10.9
2022-10-28T15:02:38.344Z,9.8
2022-10-28T15:03:42.772Z,10.2
2022-10-28T15:04:52.325Z,10.7
2022-10-28T15:06:07.337Z,9.8
2022-10-28T15:07:21.945Z,9.5
2022-10-28T15:08:26.564Z,11.9
2022-10-28T15:09:31.268Z,12.1
2022-10-28T15:10:37.379Z,12.7
2022-10-28T15:11:40.825Z,13.3
2022-10-28T15:12:45.340Z,11.3
2022-10-28T15:13:49.393Z,10.4
2022-10-28T15:14:53.481Z,13.1
2022-10-28T15:15:58.296Z,11.3
2022-10-28T15:17:02.178Z,11.4
2022-10-28T15:18:11.872Z,8.8
2022-10-28T15:19:24.702Z,11.3
2022-10-28T15:20:29.268Z,12.5
2022-10-28T15:21:33.463Z,11.1
2022-10-28T15:22:37.963Z,11.3
2022-10-28T15:23:42.455Z,11.5
2022-10-28T15:24:47.396Z,11.8
2022-10-28T15:25:56.692Z,13
2022-10-28T15:27:11.604Z,13.1
2022-10-28T15:28:16.271Z,11.2
2022-10-28T15:29:20.855Z,11.3
2022-10-28T15:30:25.372Z,10.9
2022-10-28T15:31:30.031Z,12
2022-10-28T15:32:34.578Z,11.6
2022-10-28T15:33:39.213Z,11.3
2022-10-28T15:34:43.915Z,12.2
2022-10-28T15:35:48.421Z,10.8